sensor_id;sensor_type;location;lat;lon;timestamp;P1;durP1;ratioP1;P2;durP2;ratioP2
79706;SDS011;69200;53.612;-2.416;2023-06-10T00:00:36;11.25;;;4.32;;
79706;SDS011;69200;53.612;-2.416;2023-06-10T00:03:02;8.57;;;3.83;;
79706;SDS011;69200;53.612;-2.416;2023-06-10T00:05:27;8.00;;;4.00;;
79706;SDS011;69200;53.612;-2.416;2023-06-10T00:07:55;11.68;;;4.20;;
79706;SDS011;69200;53.612;-2.416;2023-06-10T00:10:21;9.63;;;4.35;;
79706;SDS011;69200;53.612;-2.416;2023-06-10T00:12:47;8.85;;;4.72;;
79706;SDS011;69200;53.612;-2.416;2023-06-10T00:15:12;10.13;;;4.35;;
79706;SDS011;69200;53.612;-2.416;2023-06-10T00:17:38;9.10;;;4.20;;
79706;SDS011;69200;53.612;-2.416;2023-06-10T00:20:05;9.38;;;4.10;;
79706;SDS011;69200;53.612;-2.416;2023-06-10T00:22:37;10.32;;;4.63;;
79706;SDS011;69200;53.612;-2.416;2023-06-10T00:25:05;10.18;;;4.43;;
79706;SDS011;69200;53.612;-2.416;2023-06-10T00:27:31;8.45;;;4.10;;
79706;SDS011;69200;53.612;-2.416;2023-06-10T00:30:00;8.85;;;4.43;;
79706;SDS011;69200;53.612;-2.416;2023-06-10T00:32:29;8.73;;;4.40;;
79706;SDS011;69200;53.612;-2.416;2023-06-10T00:34:54;14.65;;;4.15;;
79706;SDS011;69200;53.612;-2.416;2023-06-10T00:37:20;8.25;;;3.83;;
79706;SDS011;69200;53.612;-2.416;2023-06-10T00:39:45;9.35;;;4.10;;
79706;SDS011;69200;53.612;-2.416;2023-06-10T00:42:11;9.05;;;4.22;;
79706;SDS011;69200;53.612;-2.416;2023-06-10T00:44:36;8.68;;;4.03;;
79706;SDS011;69200;53.612;-2.416;2023-06-10T00:47:02;10.25;;;4.47;;
79706;SDS011;69200;53.612;-2.416;2023-06-10T00:49:28;11.75;;;4.35;;
79706;SDS011;69200;53.612;-2.416;2023-06-10T00:51:53;10.45;;;4.70;;
79706;SDS011;69200;53.612;-2.416;2023-06-10T00:54:19;9.25;;;4.75;;
79706;SDS011;69200;53.612;-2.416;2023-06-10T00:56:45;9.93;;;4.32;;
79706;SDS011;69200;53.612;-2.416;2023-06-10T00:59:12;10.63;;;4.60;;
79706;SDS011;69200;53.612;-2.416;2023-06-10T01:01:39;12.30;;;4.78;;
79706;SDS011;69200;53.612;-2.416;2023-06-10T01:04:04;11.48;;;4.25;;
79706;SDS011;69200;53.612;-2.416;2023-06-10T01:06:40;13.77;;;5.28;;
79706;SDS011;69200;53.612;-2.416;2023-06-10T01:09:18;10.68;;;4.57;;
79706;SDS011;69200;53.612;-2.416;2023-06-10T01:11:47;12.95;;;5.32;;
79706;SDS011;69200;53.612;-2.416;2023-06-10T01:14:23;10.02;;;4.72;;
79706;SDS011;69200;53.612;-2.416;2023-06-10T01:16:49;10.93;;;5.03;;
79706;SDS011;69200;53.612;-2.416;2023-06-10T01:19:17;14.82;;;5.93;;
79706;SDS011;69200;53.612;-2.416;2023-06-10T01:21:43;12.40;;;5.25;;
79706;SDS011;69200;53.612;-2.416;2023-06-10T01:26:39;14.00;;;5.57;;
79706;SDS011;69200;53.612;-2.416;2023-06-10T01:29:07;13.73;;;6.15;;
79706;SDS011;69200;53.612;-2.416;2023-06-10T01:31:56;12.43;;;6.15;;
79706;SDS011;69200;53.612;-2.416;2023-06-10T01:34:28;12.65;;;6.30;;
79706;SDS011;69200;53.612;-2.416;2023-06-10T01:36:58;14.20;;;5.95;;
79706;SDS011;69200;53.612;-2.416;2023-06-10T01:39:24;14.55;;;5.95;;
79706;SDS011;69200;53.612;-2.416;2023-06-10T01:41:50;15.65;;;6.28;;
79706;SDS011;69200;53.612;-2.416;2023-06-10T01:44:18;15.55;;;5.93;;
79706;SDS011;69200;53.612;-2.416;2023-06-10T01:46:45;14.20;;;6.05;;
79706;SDS011;69200;53.612;-2.416;2023-06-10T01:49:11;12.35;;;5.65;;
79706;SDS011;69200;53.612;-2.416;2023-06-10T01:51:37;15.30;;;6.05;;
79706;SDS011;69200;53.612;-2.416;2023-06-10T01:54:02;13.40;;;6.05;;
79706;SDS011;69200;53.612;-2.416;2023-06-10T01:56:27;14.73;;;6.07;;
79706;SDS011;69200;53.612;-2.416;2023-06-10T01:58:53;15.32;;;5.90;;
79706;SDS011;69200;53.612;-2.416;2023-06-10T02:01:23;17.33;;;6.43;;
79706;SDS011;69200;53.612;-2.416;2023-06-10T02:03:49;16.02;;;6.20;;
79706;SDS011;69200;53.612;-2.416;2023-06-10T02:06:15;14.30;;;6.38;;
79706;SDS011;69200;53.612;-2.416;2023-06-10T02:08:40;18.05;;;6.85;;
79706;SDS011;69200;53.612;-2.416;2023-06-10T02:11:05;15.55;;;7.03;;
79706;SDS011;69200;53.612;-2.416;2023-06-10T02:13:32;13.10;;;6.57;;
79706;SDS011;69200;53.612;-2.416;2023-06-10T02:15:57;16.70;;;6.88;;
79706;SDS011;69200;53.612;-2.416;2023-06-10T02:18:23;13.05;;;6.22;;
79706;SDS011;69200;53.612;-2.416;2023-06-10T02:20:48;15.02;;;6.28;;
79706;SDS011;69200;53.612;-2.416;2023-06-10T02:23:14;14.27;;;6.60;;
79706;SDS011;69200;53.612;-2.416;2023-06-10T02:25:39;18.98;;;6.40;;
79706;SDS011;69200;53.612;-2.416;2023-06-10T02:28:05;13.73;;;5.85;;
79706;SDS011;69200;53.612;-2.416;2023-06-10T02:30:30;13.15;;;6.47;;
79706;SDS011;69200;53.612;-2.416;2023-06-10T02:32:56;14.23;;;6.20;;
79706;SDS011;69200;53.612;-2.416;2023-06-10T02:35:22;16.25;;;5.78;;
79706;SDS011;69200;53.612;-2.416;2023-06-10T02:37:49;11.27;;;5.38;;
79706;SDS011;69200;53.612;-2.416;2023-06-10T02:40:15;15.25;;;6.38;;
79706;SDS011;69200;53.612;-2.416;2023-06-10T02:42:40;14.05;;;5.90;;
79706;SDS011;69200;53.612;-2.416;2023-06-10T02:45:06;14.68;;;6.32;;
79706;SDS011;69200;53.612;-2.416;2023-06-10T02:47:32;13.60;;;5.68;;
79706;SDS011;69200;53.612;-2.416;2023-06-10T02:49:57;12.27;;;4.95;;
79706;SDS011;69200;53.612;-2.416;2023-06-10T02:52:23;13.23;;;5.57;;
79706;SDS011;69200;53.612;-2.416;2023-06-10T02:54:48;13.43;;;5.93;;
79706;SDS011;69200;53.612;-2.416;2023-06-10T02:57:13;12.55;;;6.55;;
79706;SDS011;69200;53.612;-2.416;2023-06-10T02:59:39;13.32;;;6.00;;
79706;SDS011;69200;53.612;-2.416;2023-06-10T03:02:05;17.55;;;6.88;;
79706;SDS011;69200;53.612;-2.416;2023-06-10T03:04:30;13.48;;;5.93;;
79706;SDS011;69200;53.612;-2.416;2023-06-10T03:06:56;13.40;;;5.88;;
79706;SDS011;69200;53.612;-2.416;2023-06-10T03:09:21;13.07;;;5.93;;
79706;SDS011;69200;53.612;-2.416;2023-06-10T03:11:47;12.98;;;6.18;;
79706;SDS011;69200;53.612;-2.416;2023-06-10T03:14:13;15.25;;;6.68;;
79706;SDS011;69200;53.612;-2.416;2023-06-10T03:16:38;14.48;;;6.63;;
79706;SDS011;69200;53.612;-2.416;2023-06-10T03:19:05;16.23;;;6.28;;
79706;SDS011;69200;53.612;-2.416;2023-06-10T03:21:32;10.52;;;5.57;;
79706;SDS011;69200;53.612;-2.416;2023-06-10T03:23:58;14.98;;;6.03;;
79706;SDS011;69200;53.612;-2.416;2023-06-10T03:26:23;12.98;;;6.22;;
79706;SDS011;69200;53.612;-2.416;2023-06-10T03:28:48;12.35;;;5.53;;
79706;SDS011;69200;53.612;-2.416;2023-06-10T03:31:14;13.43;;;5.47;;
79706;SDS011;69200;53.612;-2.416;2023-06-10T03:33:41;12.75;;;5.70;;
79706;SDS011;69200;53.612;-2.416;2023-06-10T03:36:07;12.18;;;5.63;;
79706;SDS011;69200;53.612;-2.416;2023-06-10T03:38:32;15.18;;;6.40;;
79706;SDS011;69200;53.612;-2.416;2023-06-10T03:40:58;12.25;;;6.20;;
79706;SDS011;69200;53.612;-2.416;2023-06-10T03:43:23;17.35;;;6.45;;
79706;SDS011;69200;53.612;-2.416;2023-06-10T03:45:48;15.63;;;6.40;;
79706;SDS011;69200;53.612;-2.416;2023-06-10T03:48:14;12.05;;;5.93;;
79706;SDS011;69200;53.612;-2.416;2023-06-10T03:50:39;12.45;;;5.97;;
79706;SDS011;69200;53.612;-2.416;2023-06-10T03:53:05;14.52;;;5.68;;
79706;SDS011;69200;53.612;-2.416;2023-06-10T03:55:30;14.90;;;5.65;;
79706;SDS011;69200;53.612;-2.416;2023-06-10T03:57:56;12.68;;;5.32;;
79706;SDS011;69200;53.612;-2.416;2023-06-10T04:00:22;13.90;;;5.50;;
79706;SDS011;69200;53.612;-2.416;2023-06-10T04:02:47;9.90;;;5.20;;
79706;SDS011;69200;53.612;-2.416;2023-06-10T04:05:16;12.45;;;5.55;;
79706;SDS011;69200;53.612;-2.416;2023-06-10T04:07:42;11.57;;;5.40;;
79706;SDS011;69200;53.612;-2.416;2023-06-10T04:10:09;13.38;;;5.25;;
79706;SDS011;69200;53.612;-2.416;2023-06-10T04:12:36;14.70;;;5.72;;
79706;SDS011;69200;53.612;-2.416;2023-06-10T04:15:03;11.85;;;5.47;;
79706;SDS011;69200;53.612;-2.416;2023-06-10T04:17:29;11.35;;;5.18;;
79706;SDS011;69200;53.612;-2.416;2023-06-10T04:19:54;13.15;;;5.15;;
79706;SDS011;69200;53.612;-2.416;2023-06-10T04:22:20;12.48;;;6.07;;
79706;SDS011;69200;53.612;-2.416;2023-06-10T04:24:45;12.80;;;5.38;;
79706;SDS011;69200;53.612;-2.416;2023-06-10T04:27:11;15.95;;;5.47;;
79706;SDS011;69200;53.612;-2.416;2023-06-10T04:29:36;13.55;;;5.43;;
79706;SDS011;69200;53.612;-2.416;2023-06-10T04:32:02;12.27;;;5.13;;
79706;SDS011;69200;53.612;-2.416;2023-06-10T04:34:27;11.55;;;4.82;;
79706;SDS011;69200;53.612;-2.416;2023-06-10T04:36:53;8.57;;;4.82;;
79706;SDS011;69200;53.612;-2.416;2023-06-10T04:39:18;11.30;;;5.13;;
79706;SDS011;69200;53.612;-2.416;2023-06-10T04:41:45;7.70;;;4.40;;
79706;SDS011;69200;53.612;-2.416;2023-06-10T04:44:11;9.18;;;4.15;;
79706;SDS011;69200;53.612;-2.416;2023-06-10T04:46:36;9.68;;;4.47;;
79706;SDS011;69200;53.612;-2.416;2023-06-10T04:49:02;10.25;;;4.28;;
79706;SDS011;69200;53.612;-2.416;2023-06-10T04:51:27;10.27;;;4.28;;
79706;SDS011;69200;53.612;-2.416;2023-06-10T04:53:53;9.70;;;4.38;;
79706;SDS011;69200;53.612;-2.416;2023-06-10T04:56:18;9.23;;;4.20;;
79706;SDS011;69200;53.612;-2.416;2023-06-10T04:58:45;10.20;;;4.82;;
79706;SDS011;69200;53.612;-2.416;2023-06-10T05:01:10;7.90;;;4.20;;
79706;SDS011;69200;53.612;-2.416;2023-06-10T05:03:36;11.07;;;4.80;;
79706;SDS011;69200;53.612;-2.416;2023-06-10T05:06:01;10.63;;;4.80;;
79706;SDS011;69200;53.612;-2.416;2023-06-10T05:08:26;11.40;;;4.60;;
79706;SDS011;69200;53.612;-2.416;2023-06-10T05:10:52;9.48;;;4.38;;
79706;SDS011;69200;53.612;-2.416;2023-06-10T05:13:17;10.38;;;4.03;;
79706;SDS011;69200;53.612;-2.416;2023-06-10T05:15:43;11.13;;;4.00;;
79706;SDS011;69200;53.612;-2.416;2023-06-10T05:18:09;8.65;;;4.20;;
79706;SDS011;69200;53.612;-2.416;2023-06-10T05:20:37;12.50;;;4.63;;
79706;SDS011;69200;53.612;-2.416;2023-06-10T05:23:03;11.32;;;4.43;;
79706;SDS011;69200;53.612;-2.416;2023-06-10T05:25:30;9.07;;;4.05;;
79706;SDS011;69200;53.612;-2.416;2023-06-10T05:27:56;9.25;;;4.15;;
79706;SDS011;69200;53.612;-2.416;2023-06-10T05:30:21;9.35;;;3.83;;
79706;SDS011;69200;53.612;-2.416;2023-06-10T05:32:47;10.23;;;4.80;;
79706;SDS011;69200;53.612;-2.416;2023-06-10T05:35:13;9.82;;;4.05;;
79706;SDS011;69200;53.612;-2.416;2023-06-10T05:37:38;10.75;;;4.18;;
79706;SDS011;69200;53.612;-2.416;2023-06-10T05:40:04;8.32;;;3.60;;
79706;SDS011;69200;53.612;-2.416;2023-06-10T05:42:30;12.50;;;4.70;;
79706;SDS011;69200;53.612;-2.416;2023-06-10T05:44:55;10.68;;;4.13;;
79706;SDS011;69200;53.612;-2.416;2023-06-10T05:47:21;12.77;;;4.35;;
79706;SDS011;69200;53.612;-2.416;2023-06-10T05:49:46;12.85;;;4.38;;
79706;SDS011;69200;53.612;-2.416;2023-06-10T05:52:14;11.15;;;3.88;;
79706;SDS011;69200;53.612;-2.416;2023-06-10T05:54:39;12.10;;;4.20;;
79706;SDS011;69200;53.612;-2.416;2023-06-10T05:57:05;11.23;;;4.93;;
79706;SDS011;69200;53.612;-2.416;2023-06-10T05:59:30;12.73;;;4.53;;
79706;SDS011;69200;53.612;-2.416;2023-06-10T06:01:56;8.43;;;3.85;;
79706;SDS011;69200;53.612;-2.416;2023-06-10T06:04:21;9.32;;;3.83;;
79706;SDS011;69200;53.612;-2.416;2023-06-10T06:06:47;13.65;;;3.85;;
79706;SDS011;69200;53.612;-2.416;2023-06-10T06:09:12;10.23;;;4.05;;
79706;SDS011;69200;53.612;-2.416;2023-06-10T06:11:38;11.10;;;4.45;;
79706;SDS011;69200;53.612;-2.416;2023-06-10T06:14:03;10.63;;;4.28;;
79706;SDS011;69200;53.612;-2.416;2023-06-10T06:16:28;8.93;;;3.92;;
79706;SDS011;69200;53.612;-2.416;2023-06-10T06:18:54;10.30;;;3.92;;
79706;SDS011;69200;53.612;-2.416;2023-06-10T06:21:19;9.73;;;3.80;;
79706;SDS011;69200;53.612;-2.416;2023-06-10T06:23:45;10.93;;;3.97;;
79706;SDS011;69200;53.612;-2.416;2023-06-10T06:26:10;8.93;;;4.10;;
79706;SDS011;69200;53.612;-2.416;2023-06-10T06:28:35;9.70;;;4.15;;
79706;SDS011;69200;53.612;-2.416;2023-06-10T06:31:01;10.38;;;4.05;;
79706;SDS011;69200;53.612;-2.416;2023-06-10T06:33:26;8.90;;;4.05;;
79706;SDS011;69200;53.612;-2.416;2023-06-10T06:35:52;9.70;;;3.97;;
79706;SDS011;69200;53.612;-2.416;2023-06-10T06:38:17;12.30;;;4.40;;
79706;SDS011;69200;53.612;-2.416;2023-06-10T06:40:42;10.60;;;4.32;;
79706;SDS011;69200;53.612;-2.416;2023-06-10T06:43:08;9.05;;;3.58;;
79706;SDS011;69200;53.612;-2.416;2023-06-10T06:45:33;7.97;;;3.88;;
79706;SDS011;69200;53.612;-2.416;2023-06-10T06:47:59;11.10;;;4.22;;
79706;SDS011;69200;53.612;-2.416;2023-06-10T06:50:24;9.27;;;4.35;;
79706;SDS011;69200;53.612;-2.416;2023-06-10T06:52:50;12.38;;;4.35;;
79706;SDS011;69200;53.612;-2.416;2023-06-10T06:55:15;11.25;;;4.05;;
79706;SDS011;69200;53.612;-2.416;2023-06-10T06:57:41;9.82;;;4.20;;
79706;SDS011;69200;53.612;-2.416;2023-06-10T07:00:06;9.70;;;4.47;;
79706;SDS011;69200;53.612;-2.416;2023-06-10T07:02:34;11.02;;;4.00;;
79706;SDS011;69200;53.612;-2.416;2023-06-10T07:05:00;12.05;;;3.95;;
79706;SDS011;69200;53.612;-2.416;2023-06-10T07:07:25;8.57;;;4.20;;
79706;SDS011;69200;53.612;-2.416;2023-06-10T07:09:51;9.55;;;4.20;;
79706;SDS011;69200;53.612;-2.416;2023-06-10T07:12:17;9.65;;;3.90;;
79706;SDS011;69200;53.612;-2.416;2023-06-10T07:14:43;9.77;;;4.07;;
79706;SDS011;69200;53.612;-2.416;2023-06-10T07:17:09;11.82;;;4.65;;
79706;SDS011;69200;53.612;-2.416;2023-06-10T07:19:35;9.93;;;4.30;;
79706;SDS011;69200;53.612;-2.416;2023-06-10T07:22:00;10.13;;;4.72;;
79706;SDS011;69200;53.612;-2.416;2023-06-10T07:24:26;10.23;;;4.68;;
79706;SDS011;69200;53.612;-2.416;2023-06-10T07:26:51;12.55;;;4.72;;
79706;SDS011;69200;53.612;-2.416;2023-06-10T07:29:17;10.52;;;4.38;;
79706;SDS011;69200;53.612;-2.416;2023-06-10T07:31:42;10.48;;;4.63;;
79706;SDS011;69200;53.612;-2.416;2023-06-10T07:34:07;8.75;;;4.45;;
79706;SDS011;69200;53.612;-2.416;2023-06-10T07:36:33;10.68;;;3.95;;
79706;SDS011;69200;53.612;-2.416;2023-06-10T07:38:58;9.68;;;4.85;;
79706;SDS011;69200;53.612;-2.416;2023-06-10T07:41:24;12.07;;;4.68;;
79706;SDS011;69200;53.612;-2.416;2023-06-10T07:43:55;13.50;;;4.50;;
79706;SDS011;69200;53.612;-2.416;2023-06-10T07:46:21;11.00;;;4.63;;
79706;SDS011;69200;53.612;-2.416;2023-06-10T07:48:47;11.98;;;4.28;;
79706;SDS011;69200;53.612;-2.416;2023-06-10T07:51:13;12.48;;;5.13;;
79706;SDS011;69200;53.612;-2.416;2023-06-10T07:53:40;8.68;;;4.55;;
79706;SDS011;69200;53.612;-2.416;2023-06-10T07:56:06;12.48;;;4.97;;
79706;SDS011;69200;53.612;-2.416;2023-06-10T07:58:31;13.18;;;4.68;;
79706;SDS011;69200;53.612;-2.416;2023-06-10T08:00:56;11.93;;;4.60;;
79706;SDS011;69200;53.612;-2.416;2023-06-10T08:03:22;8.70;;;4.63;;
79706;SDS011;69200;53.612;-2.416;2023-06-10T08:05:47;10.50;;;4.90;;
79706;SDS011;69200;53.612;-2.416;2023-06-10T08:08:13;9.05;;;4.68;;
79706;SDS011;69200;53.612;-2.416;2023-06-10T08:10:38;12.10;;;5.13;;
79706;SDS011;69200;53.612;-2.416;2023-06-10T08:13:04;11.90;;;4.95;;
79706;SDS011;69200;53.612;-2.416;2023-06-10T08:15:29;13.55;;;5.25;;
79706;SDS011;69200;53.612;-2.416;2023-06-10T08:17:55;9.80;;;4.90;;
79706;SDS011;69200;53.612;-2.416;2023-06-10T08:20:21;10.32;;;5.28;;
79706;SDS011;69200;53.612;-2.416;2023-06-10T08:22:47;12.93;;;4.70;;
79706;SDS011;69200;53.612;-2.416;2023-06-10T08:25:12;8.68;;;4.45;;
79706;SDS011;69200;53.612;-2.416;2023-06-10T08:27:38;11.70;;;5.05;;
79706;SDS011;69200;53.612;-2.416;2023-06-10T08:30:03;12.10;;;5.22;;
79706;SDS011;69200;53.612;-2.416;2023-06-10T08:32:29;10.45;;;5.05;;
79706;SDS011;69200;53.612;-2.416;2023-06-10T08:34:55;10.77;;;4.93;;
79706;SDS011;69200;53.612;-2.416;2023-06-10T08:37:20;11.10;;;4.90;;
79706;SDS011;69200;53.612;-2.416;2023-06-10T08:39:46;10.10;;;4.65;;
79706;SDS011;69200;53.612;-2.416;2023-06-10T08:47:16;13.82;;;5.13;;
79706;SDS011;69200;53.612;-2.416;2023-06-10T08:49:45;12.93;;;4.93;;
79706;SDS011;69200;53.612;-2.416;2023-06-10T08:52:18;12.40;;;5.00;;
79706;SDS011;69200;53.612;-2.416;2023-06-10T08:57:13;11.38;;;4.85;;
79706;SDS011;69200;53.612;-2.416;2023-06-10T08:59:38;12.02;;;4.65;;
79706;SDS011;69200;53.612;-2.416;2023-06-10T09:02:05;11.00;;;5.75;;
79706;SDS011;69200;53.612;-2.416;2023-06-10T09:04:33;12.07;;;5.30;;
79706;SDS011;69200;53.612;-2.416;2023-06-10T09:07:01;11.35;;;5.20;;
79706;SDS011;69200;53.612;-2.416;2023-06-10T09:09:27;12.25;;;5.43;;
79706;SDS011;69200;53.612;-2.416;2023-06-10T09:11:55;11.73;;;5.20;;
79706;SDS011;69200;53.612;-2.416;2023-06-10T09:14:21;13.00;;;5.50;;
79706;SDS011;69200;53.612;-2.416;2023-06-10T09:16:46;13.93;;;5.43;;
79706;SDS011;69200;53.612;-2.416;2023-06-10T09:19:13;12.13;;;5.43;;
79706;SDS011;69200;53.612;-2.416;2023-06-10T09:21:41;13.50;;;5.25;;
79706;SDS011;69200;53.612;-2.416;2023-06-10T09:24:06;11.27;;;5.30;;
79706;SDS011;69200;53.612;-2.416;2023-06-10T09:26:32;10.38;;;5.00;;
79706;SDS011;69200;53.612;-2.416;2023-06-10T09:29:03;12.40;;;5.20;;
79706;SDS011;69200;53.612;-2.416;2023-06-10T09:31:30;11.10;;;4.60;;
79706;SDS011;69200;53.612;-2.416;2023-06-10T09:34:09;10.82;;;4.90;;
79706;SDS011;69200;53.612;-2.416;2023-06-10T09:36:37;10.13;;;4.75;;
79706;SDS011;69200;53.612;-2.416;2023-06-10T09:39:03;12.70;;;5.47;;
79706;SDS011;69200;53.612;-2.416;2023-06-10T09:41:33;11.70;;;4.82;;
79706;SDS011;69200;53.612;-2.416;2023-06-10T09:44:00;9.63;;;5.30;;
79706;SDS011;69200;53.612;-2.416;2023-06-10T09:46:25;12.27;;;4.80;;
79706;SDS011;69200;53.612;-2.416;2023-06-10T09:48:57;11.48;;;5.15;;
79706;SDS011;69200;53.612;-2.416;2023-06-10T09:51:22;12.15;;;5.18;;
79706;SDS011;69200;53.612;-2.416;2023-06-10T09:53:48;11.65;;;4.88;;
79706;SDS011;69200;53.612;-2.416;2023-06-10T09:56:16;13.50;;;6.05;;
79706;SDS011;69200;53.612;-2.416;2023-06-10T09:58:41;12.25;;;5.28;;
79706;SDS011;69200;53.612;-2.416;2023-06-10T10:01:09;13.82;;;5.13;;
79706;SDS011;69200;53.612;-2.416;2023-06-10T10:06:17;14.80;;;5.10;;
79706;SDS011;69200;53.612;-2.416;2023-06-10T10:08:48;11.23;;;4.78;;
79706;SDS011;69200;53.612;-2.416;2023-06-10T10:11:16;11.45;;;5.40;;
79706;SDS011;69200;53.612;-2.416;2023-06-10T10:13:43;16.52;;;5.40;;
79706;SDS011;69200;53.612;-2.416;2023-06-10T10:16:11;8.73;;;4.97;;
79706;SDS011;69200;53.612;-2.416;2023-06-10T10:18:43;10.82;;;4.93;;
79706;SDS011;69200;53.612;-2.416;2023-06-10T10:21:15;12.57;;;5.53;;
79706;SDS011;69200;53.612;-2.416;2023-06-10T10:23:53;13.68;;;5.85;;
79706;SDS011;69200;53.612;-2.416;2023-06-10T10:26:26;10.68;;;5.25;;
79706;SDS011;69200;53.612;-2.416;2023-06-10T10:29:01;12.23;;;4.88;;
79706;SDS011;69200;53.612;-2.416;2023-06-10T10:31:50;13.80;;;5.30;;
79706;SDS011;69200;53.612;-2.416;2023-06-10T10:34:24;10.82;;;5.28;;
79706;SDS011;69200;53.612;-2.416;2023-06-10T10:37:15;14.07;;;5.07;;
79706;SDS011;69200;53.612;-2.416;2023-06-10T10:39:42;13.65;;;4.95;;
79706;SDS011;69200;53.612;-2.416;2023-06-10T10:42:08;13.60;;;4.95;;
79706;SDS011;69200;53.612;-2.416;2023-06-10T10:44:40;12.10;;;5.05;;
79706;SDS011;69200;53.612;-2.416;2023-06-10T10:47:07;11.55;;;5.10;;
79706;SDS011;69200;53.612;-2.416;2023-06-10T10:49:34;12.30;;;5.28;;
79706;SDS011;69200;53.612;-2.416;2023-06-10T10:52:01;11.20;;;5.07;;
79706;SDS011;69200;53.612;-2.416;2023-06-10T10:57:33;13.15;;;4.90;;
79706;SDS011;69200;53.612;-2.416;2023-06-10T10:59:58;12.00;;;5.38;;
79706;SDS011;69200;53.612;-2.416;2023-06-10T11:04:59;11.70;;;5.50;;
79706;SDS011;69200;53.612;-2.416;2023-06-10T11:07:25;14.02;;;5.35;;
79706;SDS011;69200;53.612;-2.416;2023-06-10T11:10:01;12.50;;;5.35;;
79706;SDS011;69200;53.612;-2.416;2023-06-10T11:15:11;14.95;;;5.50;;
79706;SDS011;69200;53.612;-2.416;2023-06-10T11:17:37;13.25;;;5.45;;
79706;SDS011;69200;53.612;-2.416;2023-06-10T11:20:03;11.57;;;4.85;;
79706;SDS011;69200;53.612;-2.416;2023-06-10T11:22:28;9.52;;;4.80;;
79706;SDS011;69200;53.612;-2.416;2023-06-10T11:24:54;8.52;;;4.82;;
79706;SDS011;69200;53.612;-2.416;2023-06-10T11:27:23;9.13;;;4.72;;
79706;SDS011;69200;53.612;-2.416;2023-06-10T11:29:58;10.93;;;4.88;;
79706;SDS011;69200;53.612;-2.416;2023-06-10T11:32:43;13.55;;;5.10;;
79706;SDS011;69200;53.612;-2.416;2023-06-10T11:35:09;14.70;;;5.70;;
79706;SDS011;69200;53.612;-2.416;2023-06-10T11:37:34;10.57;;;5.15;;
79706;SDS011;69200;53.612;-2.416;2023-06-10T11:40:00;12.82;;;5.72;;
79706;SDS011;69200;53.612;-2.416;2023-06-10T11:42:25;11.52;;;5.32;;
79706;SDS011;69200;53.612;-2.416;2023-06-10T11:44:52;10.90;;;5.65;;
79706;SDS011;69200;53.612;-2.416;2023-06-10T11:47:19;12.68;;;4.90;;
79706;SDS011;69200;53.612;-2.416;2023-06-10T11:49:45;12.95;;;5.18;;
79706;SDS011;69200;53.612;-2.416;2023-06-10T11:52:25;12.82;;;5.20;;
79706;SDS011;69200;53.612;-2.416;2023-06-10T11:54:55;10.73;;;4.78;;
79706;SDS011;69200;53.612;-2.416;2023-06-10T11:57:21;12.73;;;5.70;;
79706;SDS011;69200;53.612;-2.416;2023-06-10T11:59:46;11.82;;;4.90;;
79706;SDS011;69200;53.612;-2.416;2023-06-10T12:02:18;12.82;;;5.00;;
79706;SDS011;69200;53.612;-2.416;2023-06-10T12:04:44;11.20;;;6.10;;
79706;SDS011;69200;53.612;-2.416;2023-06-10T12:07:16;11.90;;;5.20;;
79706;SDS011;69200;53.612;-2.416;2023-06-10T12:09:43;14.63;;;5.63;;
79706;SDS011;69200;53.612;-2.416;2023-06-10T12:12:09;11.23;;;5.22;;
79706;SDS011;69200;53.612;-2.416;2023-06-10T12:17:42;12.52;;;5.53;;
79706;SDS011;69200;53.612;-2.416;2023-06-10T12:20:08;9.48;;;5.07;;
79706;SDS011;69200;53.612;-2.416;2023-06-10T12:22:49;11.95;;;4.55;;
79706;SDS011;69200;53.612;-2.416;2023-06-10T12:25:14;7.70;;;4.45;;
79706;SDS011;69200;53.612;-2.416;2023-06-10T12:27:40;11.75;;;5.30;;
79706;SDS011;69200;53.612;-2.416;2023-06-10T12:32:44;11.43;;;5.45;;
79706;SDS011;69200;53.612;-2.416;2023-06-10T12:35:12;10.90;;;5.10;;
79706;SDS011;69200;53.612;-2.416;2023-06-10T12:37:41;9.52;;;4.97;;
79706;SDS011;69200;53.612;-2.416;2023-06-10T12:40:07;11.85;;;5.13;;
79706;SDS011;69200;53.612;-2.416;2023-06-10T12:42:36;11.63;;;5.30;;
79706;SDS011;69200;53.612;-2.416;2023-06-10T12:45:02;14.10;;;5.75;;
79706;SDS011;69200;53.612;-2.416;2023-06-10T12:47:29;13.85;;;5.03;;
79706;SDS011;69200;53.612;-2.416;2023-06-10T12:50:03;10.38;;;4.82;;
79706;SDS011;69200;53.612;-2.416;2023-06-10T12:52:30;11.77;;;4.80;;
79706;SDS011;69200;53.612;-2.416;2023-06-10T12:54:57;14.15;;;4.85;;
79706;SDS011;69200;53.612;-2.416;2023-06-10T12:57:23;15.40;;;5.20;;
79706;SDS011;69200;53.612;-2.416;2023-06-10T12:59:49;11.95;;;4.70;;
79706;SDS011;69200;53.612;-2.416;2023-06-10T13:02:17;12.25;;;4.95;;
79706;SDS011;69200;53.612;-2.416;2023-06-10T13:04:44;14.20;;;5.53;;
79706;SDS011;69200;53.612;-2.416;2023-06-10T13:07:10;9.55;;;5.00;;
79706;SDS011;69200;53.612;-2.416;2023-06-10T13:09:36;11.40;;;4.68;;
79706;SDS011;69200;53.612;-2.416;2023-06-10T13:12:02;13.15;;;4.88;;
79706;SDS011;69200;53.612;-2.416;2023-06-10T13:14:27;12.27;;;5.10;;
79706;SDS011;69200;53.612;-2.416;2023-06-10T13:16:53;12.18;;;5.40;;
79706;SDS011;69200;53.612;-2.416;2023-06-10T13:19:19;10.77;;;5.18;;
79706;SDS011;69200;53.612;-2.416;2023-06-10T13:21:46;11.63;;;5.20;;
79706;SDS011;69200;53.612;-2.416;2023-06-10T13:24:12;15.18;;;4.75;;
79706;SDS011;69200;53.612;-2.416;2023-06-10T13:26:37;10.43;;;5.13;;
79706;SDS011;69200;53.612;-2.416;2023-06-10T13:29:03;10.98;;;4.72;;
79706;SDS011;69200;53.612;-2.416;2023-06-10T13:31:29;13.38;;;5.18;;
79706;SDS011;69200;53.612;-2.416;2023-06-10T13:33:54;10.68;;;5.43;;
79706;SDS011;69200;53.612;-2.416;2023-06-10T13:36:20;10.43;;;5.25;;
79706;SDS011;69200;53.612;-2.416;2023-06-10T13:38:45;11.00;;;5.32;;
79706;SDS011;69200;53.612;-2.416;2023-06-10T13:41:12;12.35;;;5.20;;
79706;SDS011;69200;53.612;-2.416;2023-06-10T13:43:38;10.35;;;4.82;;
79706;SDS011;69200;53.612;-2.416;2023-06-10T13:46:04;11.60;;;5.00;;
79706;SDS011;69200;53.612;-2.416;2023-06-10T13:48:29;11.73;;;5.13;;
79706;SDS011;69200;53.612;-2.416;2023-06-10T13:50:56;11.02;;;5.50;;
79706;SDS011;69200;53.612;-2.416;2023-06-10T13:53:21;9.35;;;4.55;;
79706;SDS011;69200;53.612;-2.416;2023-06-10T13:55:48;9.45;;;4.68;;
79706;SDS011;69200;53.612;-2.416;2023-06-10T13:58:13;13.38;;;5.35;;
79706;SDS011;69200;53.612;-2.416;2023-06-10T14:00:39;12.35;;;5.22;;
79706;SDS011;69200;53.612;-2.416;2023-06-10T14:03:04;11.93;;;4.82;;
79706;SDS011;69200;53.612;-2.416;2023-06-10T14:05:29;14.63;;;5.30;;
79706;SDS011;69200;53.612;-2.416;2023-06-10T14:07:55;12.05;;;4.72;;
79706;SDS011;69200;53.612;-2.416;2023-06-10T14:10:21;9.38;;;4.50;;
79706;SDS011;69200;53.612;-2.416;2023-06-10T14:12:46;10.55;;;4.97;;
79706;SDS011;69200;53.612;-2.416;2023-06-10T14:15:11;11.73;;;5.40;;
79706;SDS011;69200;53.612;-2.416;2023-06-10T14:17:37;12.25;;;5.22;;
79706;SDS011;69200;53.612;-2.416;2023-06-10T14:20:02;10.00;;;4.82;;
79706;SDS011;69200;53.612;-2.416;2023-06-10T14:22:29;10.98;;;5.00;;
79706;SDS011;69200;53.612;-2.416;2023-06-10T14:24:54;9.27;;;5.10;;
79706;SDS011;69200;53.612;-2.416;2023-06-10T14:27:20;16.17;;;5.10;;
79706;SDS011;69200;53.612;-2.416;2023-06-10T14:29:45;9.13;;;4.65;;
79706;SDS011;69200;53.612;-2.416;2023-06-10T14:32:11;11.27;;;5.05;;
79706;SDS011;69200;53.612;-2.416;2023-06-10T14:34:36;10.98;;;5.32;;
79706;SDS011;69200;53.612;-2.416;2023-06-10T14:37:03;9.80;;;4.93;;
79706;SDS011;69200;53.612;-2.416;2023-06-10T14:39:32;10.15;;;4.80;;
79706;SDS011;69200;53.612;-2.416;2023-06-10T14:41:57;10.85;;;5.47;;
79706;SDS011;69200;53.612;-2.416;2023-06-10T14:44:22;10.50;;;5.10;;
79706;SDS011;69200;53.612;-2.416;2023-06-10T14:46:48;10.73;;;4.85;;